Time;durP1;ratioP1;P1;durP2;ratioP2;P2;SDS_P1;SDS_P2;PMS_P1;PMS_P2;Temp;Humidity;BMP_temperature;BMP_pressure;BME280_temperature;BME280_humidity;BME280_pressure;Samples;Min_cycle;Max_cycle;Signal;HPM_P1;HPM_P2
2022/04/20 00:02:18;;;;;;;12.15;7.37;;;;;;;0.50;67.15;97297.78;1638688;88;21106;-85
2022/04/20 00:04:45;;;;;;;12.75;6.97;;;;;;;0.52;66.80;97299.94;1638746;87;21004;-85
2022/04/20 00:07:12;;;;;;;13.22;7.33;;;;;;;0.50;66.49;97296.48;1638687;88;21055;-85
2022/04/20 00:09:38;;;;;;;14.23;7.85;;;;;;;0.51;66.57;97287.78;1638618;88;21036;-85
2022/04/20 00:12:06;;;;;;;11.22;7.30;;;;;;;0.54;66.48;97298.19;1651350;86;21072;-85
2022/04/20 00:14:33;;;;;;;12.70;7.30;;;;;;;0.53;66.19;97299.06;1665309;85;21028;-85
2022/04/20 00:17:00;;;;;;;14.90;7.35;;;;;;;0.52;66.31;97295.61;1665379;86;21073;-86
2022/04/20 00:19:27;;;;;;;11.85;7.22;;;;;;;0.51;66.89;97296.45;1665594;85;21025;-86
2022/04/20 00:21:53;;;;;;;10.53;6.65;;;;;;;0.47;67.67;97284.73;1665565;86;21081;-86
2022/04/20 00:24:20;;;;;;;12.53;6.60;;;;;;;0.48;66.62;97291.68;1665418;85;21021;-85
2022/04/20 00:26:46;;;;;;;13.18;7.00;;;;;;;0.47;67.30;97288.22;1664363;86;21073;-86
2022/04/20 00:29:13;;;;;;;14.85;6.67;;;;;;;0.48;66.97;97299.08;1665520;85;21041;-85
2022/04/20 00:31:41;;;;;;;13.95;7.12;;;;;;;0.50;66.77;97292.56;1665754;86;21104;-85
2022/04/20 00:34:07;;;;;;;11.12;6.83;;;;;;;0.51;66.72;97287.33;1665542;86;21422;-84
2022/04/20 00:36:34;;;;;;;11.28;6.35;;;;;;;0.50;67.61;97295.17;1665670;86;21386;-84
2022/04/20 00:39:01;;;;;;;11.85;6.92;;;;;;;0.48;66.68;97284.73;1665013;86;21467;-84
2022/04/20 00:41:28;;;;;;;9.93;5.90;;;;;;;0.46;67.78;97293.43;1638719;87;21019;-85
2022/04/20 00:43:55;;;;;;;11.85;6.53;;;;;;;0.40;67.30;97287.77;1640416;86;21031;-85
2022/04/20 00:46:25;;;;;;;12.18;6.55;;;;;;;0.39;67.09;97290.84;1638844;88;21023;-85
2022/04/20 00:48:53;;;;;;;10.05;6.20;;;;;;;0.39;66.94;97286.93;1638685;88;21035;-85
2022/04/20 00:51:20;;;;;;;11.35;6.45;;;;;;;0.39;66.61;97288.66;1638548;87;21068;-85
2022/04/20 00:53:49;;;;;;;14.35;6.95;;;;;;;0.39;66.68;97289.53;1652174;86;21138;-85
2022/04/20 00:56:17;;;;;;;11.38;6.28;;;;;;;0.39;66.75;97292.14;1665502;86;21017;-85
2022/04/20 00:58:45;;;;;;;12.47;7.45;;;;;;;0.39;66.75;97296.05;1665711;86;21068;-86
2022/04/20 01:01:11;;;;;;;11.90;6.75;;;;;;;0.38;66.89;97290.38;1665955;86;21445;-85
2022/04/20 01:03:38;;;;;;;14.25;7.37;;;;;;;0.35;66.87;97292.12;1666236;85;21080;-85
2022/04/20 01:06:17;;;;;;;14.25;7.10;;;;;;;0.32;66.82;97291.69;1662089;86;21085;-85
2022/04/20 01:09:02;;;;;;;12.70;6.25;;;;;;;0.33;66.81;97292.12;1640855;84;21250;-84
2022/04/20 01:11:41;;;;;;;11.30;6.33;;;;;;;0.31;66.73;97290.38;1641555;84;21037;-85
2022/04/20 01:14:11;;;;;;;10.82;5.87;;;;;;;0.28;66.64;97296.47;1600325;88;21101;-85
2022/04/20 01:16:55;;;;;;;12.47;5.83;;;;;;;0.25;66.54;97288.66;1650792;87;21056;-84
2022/04/20 01:19:41;;;;;;;12.15;6.33;;;;;;;0.25;66.84;97299.09;1651585;86;21020;-85
2022/04/20 01:22:24;;;;;;;10.60;6.33;;;;;;;0.23;66.74;97299.50;1675270;85;21536;-85
2022/04/20 01:25:02;;;;;;;8.50;5.55;;;;;;;0.23;66.83;97298.20;1661487;85;21504;-85
2022/04/20 01:27:41;;;;;;;9.03;6.22;;;;;;;0.18;67.83;97300.82;1674670;85;21056;-85
2022/04/20 01:30:22;;;;;;;10.03;6.22;;;;;;;0.15;67.02;97306.02;1656084;85;21027;-85
2022/04/20 01:33:02;;;;;;;11.28;6.15;;;;;;;0.14;67.03;97304.28;1650521;87;21100;-85
2022/04/20 01:35:34;;;;;;;13.22;7.15;;;;;;;0.13;66.99;97306.02;1665717;85;21052;-85
2022/04/20 01:38:00;;;;;;;11.00;6.85;;;;;;;0.13;66.96;97304.70;1679000;85;21052;-85
2022/04/20 01:40:28;;;;;;;10.78;5.83;;;;;;;0.11;66.85;97309.06;1678906;85;21052;-85
2022/04/20 01:42:55;;;;;;;10.93;6.17;;;;;;;0.08;67.12;97304.29;1678871;85;21055;-85
2022/04/20 01:45:22;;;;;;;10.53;6.10;;;;;;;0.07;67.07;97305.13;1678990;85;21464;-85
2022/04/20 01:48:07;;;;;;;9.70;6.47;;;;;;;0.04;66.91;97309.05;1678065;85;21079;-84
2022/04/20 01:53:43;;;;;;;10.48;6.20;;;;;;;0.01;66.99;97315.12;1649309;87;20115;-85
2022/04/20 01:56:15;;;;;;;11.15;6.05;;;;;;;-0.02;67.08;97316.41;1650317;87;21115;-85
2022/04/20 01:58:52;;;;;;;13.75;6.30;;;;;;;-0.05;66.96;97313.38;1632228;87;21047;-85
2022/04/20 02:04:20;;;;;;;10.48;6.22;;;;;;;-0.05;67.05;97319.89;1676803;85;21055;-85
2022/04/20 02:06:47;;;;;;;12.85;6.50;;;;;;;-0.07;67.02;97314.23;1679141;85;21020;-85
2022/04/20 02:09:16;;;;;;;15.43;6.83;;;;;;;-0.11;67.77;97313.38;1677677;85;21028;-85
2022/04/20 02:11:45;;;;;;;11.40;6.22;;;;;;;-0.11;68.14;97317.28;1678850;85;21084;-85
2022/04/20 02:14:13;;;;;;;11.48;5.87;;;;;;;-0.11;67.53;97312.48;1677011;85;21469;-85
2022/04/20 02:16:42;;;;;;;8.50;5.12;;;;;;;-0.14;67.50;97312.94;1656138;85;21088;-85
2022/04/20 02:19:25;;;;;;;11.25;5.53;;;;;;;-0.16;67.53;97312.05;1637559;88;21092;-85
2022/04/20 02:21:56;;;;;;;9.58;5.50;;;;;;;-0.18;67.50;97316.39;1638283;88;21115;-85
2022/04/20 02:24:23;;;;;;;10.32;5.55;;;;;;;-0.20;67.53;97312.89;1638797;87;21061;-85
2022/04/20 02:26:49;;;;;;;13.05;5.45;;;;;;;-0.23;67.87;97314.21;1638967;87;21433;-85
2022/04/20 02:29:17;;;;;;;8.55;5.37;;;;;;;-0.25;68.74;97309.86;1638544;87;21107;-85
2022/04/20 02:31:44;;;;;;;9.60;5.33;;;;;;;-0.26;68.29;97315.49;1655519;86;21020;-85
2022/04/20 02:34:10;;;;;;;10.90;5.58;;;;;;;-0.28;68.11;97317.23;1665706;85;21493;-86
2022/04/20 02:36:37;;;;;;;8.58;5.00;;;;;;;-0.29;67.96;97320.27;1665726;86;21097;-86
2022/04/20 02:39:05;;;;;;;11.95;5.80;;;;;;;-0.30;68.61;97317.64;1665492;85;21029;-85
2022/04/20 02:41:35;;;;;;;9.75;5.55;;;;;;;-0.32;68.22;97308.97;1665735;86;21108;-85
2022/04/20 02:44:04;;;;;;;10.45;5.35;;;;;;;-0.35;68.73;97308.95;1665468;85;21044;-85
2022/04/20 02:46:32;;;;;;;10.38;5.42;;;;;;;-0.35;68.32;97316.34;1638851;88;21072;-85
2022/04/20 02:48:58;;;;;;;11.35;5.92;;;;;;;-0.35;68.45;97319.37;1638664;87;21040;-85
2022/04/20 02:51:27;;;;;;;10.15;5.85;;;;;;;-0.37;67.93;97318.51;1638810;87;21111;-85
2022/04/20 02:53:54;;;;;;;9.18;5.00;;;;;;;-0.40;67.89;97318.07;1638733;87;21101;-85
2022/04/20 02:56:21;;;;;;;10.10;6.40;;;;;;;-0.43;68.08;97320.23;1638597;87;21020;-86
2022/04/20 02:58:50;;;;;;;13.83;5.37;;;;;;;-0.44;67.97;97326.30;1649863;86;21041;-85
2022/04/20 03:01:17;;;;;;;8.98;5.60;;;;;;;-0.46;68.38;97326.72;1663782;86;21032;-85
2022/04/20 03:03:46;;;;;;;10.63;5.65;;;;;;;-0.46;68.10;97333.22;1663768;86;21013;-85
2022/04/20 03:06:29;;;;;;;7.87;4.73;;;;;;;-0.49;69.09;97334.53;1664255;86;21048;-85
2022/04/20 03:08:58;;;;;;;11.33;5.25;;;;;;;-0.54;68.66;97333.20;1664025;86;21032;-86
2022/04/20 03:11:27;;;;;;;9.15;5.33;;;;;;;-0.54;68.27;97329.30;1663859;86;21056;-85
2022/04/20 03:13:53;;;;;;;7.72;4.72;;;;;;;-0.54;68.20;97331.05;1643507;86;21081;-85
2022/04/20 03:16:20;;;;;;;7.62;4.65;;;;;;;-0.55;68.36;97331.47;1642689;87;21013;-85
2022/04/20 03:18:48;;;;;;;8.03;5.40;;;;;;;-0.52;68.26;97339.72;1647513;87;21446;-85
2022/04/20 03:21:20;;;;;;;9.50;5.37;;;;;;;-0.52;68.07;97331.02;1647957;87;21048;-85
2022/04/20 03:23:47;;;;;;;9.05;5.45;;;;;;;-0.53;68.15;97335.38;1647860;87;21526;-86
2022/04/20 03:26:15;;;;;;;9.50;5.33;;;;;;;-0.54;68.11;97333.20;1647693;85;21059;-85
2022/04/20 03:28:49;;;;;;;;;;;;;;;-0.57;69.83;97339.71;1645334;87;21104;-85
2022/04/20 03:31:17;;;;;;;10.55;5.85;;;;;;;-0.63;69.64;97335.75;1647754;87;20116;-85
2022/04/20 03:33:44;;;;;;;8.63;5.42;;;;;;;-0.68;70.04;97344.86;1647786;87;21016;-85
2022/04/20 03:36:11;;;;;;;12.15;6.85;;;;;;;-0.73;69.67;97340.48;1647940;85;21092;-86
2022/04/20 03:38:38;;;;;;;10.75;5.47;;;;;;;-0.72;68.96;97335.30;1647705;87;21474;-86
2022/04/20 03:41:05;;;;;;;12.40;5.60;;;;;;;-0.69;68.74;97337.04;1664014;86;21358;-86
2022/04/20 03:43:32;;;;;;;12.50;6.67;;;;;;;-0.69;69.10;97342.24;1675025;86;21043;-85
2022/04/20 03:45:58;;;;;;;10.53;5.75;;;;;;;-0.66;68.82;97335.77;1675009;86;21454;-86
2022/04/20 03:48:26;;;;;;;8.78;5.92;;;;;;;-0.64;68.57;97336.62;1675170;86;21100;-86
2022/04/20 03:50:54;;;;;;;10.25;6.35;;;;;;;-0.62;68.61;97332.73;1675265;86;21065;-86
2022/04/20 03:53:22;;;;;;;11.12;5.45;;;;;;;-0.64;69.05;97331.42;1675019;86;21043;-85
2022/04/20 03:55:49;;;;;;;12.28;5.78;;;;;;;-0.67;68.62;97332.28;1649223;86;21045;-85
2022/04/20 03:58:16;;;;;;;11.68;6.00;;;;;;;-0.67;69.13;97334.00;1647920;87;21056;-86
2022/04/20 04:00:43;;;;;;;10.53;5.62;;;;;;;-0.64;68.74;97331.84;1697876;84;21503;-86
2022/04/20 04:03:11;;;;;;;9.48;5.45;;;;;;;-0.63;68.73;97337.51;1639393;86;21040;-86
2022/04/20 04:05:40;;;;;;;10.45;5.87;;;;;;;-0.62;68.68;97344.45;1647761;87;21052;-86
2022/04/20 04:08:09;;;;;;;9.08;5.55;;;;;;;-0.59;68.67;97341.84;1650924;85;21068;-86
2022/04/20 04:10:36;;;;;;;10.43;5.42;;;;;;;-0.58;68.82;97337.09;1674928;86;21520;-86
2022/04/20 04:13:04;;;;;;;11.43;5.45;;;;;;;-0.55;68.61;97345.78;1675108;86;21430;-85
2022/04/20 04:15:30;;;;;;;9.83;5.40;;;;;;;-0.54;68.51;97337.10;1675000;86;21037;-86
2022/04/20 04:18:01;;;;;;;12.20;6.03;;;;;;;-0.52;69.37;97347.94;1641975;86;21080;-86
2022/04/20 04:20:29;;;;;;;10.08;6.17;;;;;;;-0.52;69.75;97353.15;1664873;86;21112;-85
2022/04/20 04:22:57;;;;;;;10.70;5.90;;;;;;;-0.50;68.91;97352.30;1649851;86;21072;-85
2022/04/20 04:25:31;;;;;;;8.98;5.28;;;;;;;-0.47;68.69;97349.72;1653533;86;21072;-86
2022/04/20 04:27:58;;;;;;;8.03;5.20;;;;;;;-0.43;68.84;97360.58;1663813;86;21042;-86
2022/04/20 04:30:27;;;;;;;8.23;5.05;;;;;;;-0.38;68.69;97355.83;1642648;86;21114;-86
2022/04/20 04:32:58;;;;;;;9.50;5.47;;;;;;;-0.35;68.93;97358.42;1664009;86;21053;-86
2022/04/20 04:35:25;;;;;;;8.35;5.00;;;;;;;-0.28;68.45;97355.00;1663887;86;21068;-86
2022/04/20 04:37:52;;;;;;;11.10;5.92;;;;;;;-0.24;68.47;97361.08;1664429;86;21486;-86
2022/04/20 04:40:21;;;;;;;12.05;5.35;;;;;;;-0.17;68.06;97355.89;1665822;86;21004;-86
2022/04/20 04:42:47;;;;;;;10.65;5.70;;;;;;;-0.11;68.16;97358.07;1665675;85;21069;-85
2022/04/20 04:50:47;;;;;;;9.00;5.30;;;;;;;-0.02;67.93;97360.70;1638567;88;21027;-85
2022/04/20 04:53:15;;;;;;;10.68;5.78;;;;;;;0.03;67.62;97356.37;1638558;88;21031;-85
2022/04/20 04:55:42;;;;;;;9.40;5.75;;;;;;;0.09;67.55;97359.44;1638693;88;21059;-86
2022/04/20 04:58:09;;;;;;;10.20;5.87;;;;;;;0.13;67.26;97358.13;1638621;87;21021;-86
2022/04/20 05:00:35;;;;;;;13.72;6.22;;;;;;;0.19;67.17;97361.61;1638828;88;21040;-86
2022/04/20 05:03:04;;;;;;;10.68;6.25;;;;;;;0.25;67.07;97362.48;1631411;88;21060;-86
2022/04/20 05:05:31;;;;;;;11.08;6.30;;;;;;;0.29;66.96;97358.14;1638808;88;21044;-87
2022/04/20 05:07:58;;;;;;;9.70;5.95;;;;;;;0.34;66.97;97368.59;1615729;88;21016;-87
2022/04/20 05:10:25;;;;;;;8.38;5.00;;;;;;;0.39;66.87;97359.92;1650009;86;21009;-87
2022/04/20 05:12:52;;;;;;;9.85;5.22;;;;;;;0.38;66.72;97363.37;1642167;86;21037;-87
2022/04/20 05:15:20;;;;;;;10.05;5.97;;;;;;;0.41;66.76;97362.50;1665644;86;21025;-87
2022/04/20 05:17:46;;;;;;;11.88;5.67;;;;;;;0.49;66.51;97369.91;1672718;86;21079;-86
2022/04/20 05:20:13;;;;;;;11.83;6.08;;;;;;;0.55;66.48;97364.25;1674740;86;21064;-87
2022/04/20 05:22:41;;;;;;;9.95;6.80;;;;;;;0.64;66.42;97365.14;1675195;86;21059;-87
2022/04/20 05:25:08;;;;;;;17.57;6.65;;;;;;;0.72;66.49;97365.13;1650249;85;21052;-84
2022/04/20 05:27:36;;;;;;;9.98;6.12;;;;;;;0.79;66.25;97361.64;1697934;84;21048;-87
2022/04/20 05:30:11;;;;;;;9.85;6.42;;;;;;;0.88;66.36;97366.42;1664270;86;21519;-85
2022/04/20 05:32:38;;;;;;;12.10;6.53;;;;;;;0.98;66.11;97362.05;1647004;87;21555;-85
2022/04/20 05:35:07;;;;;;;12.47;7.12;;;;;;;1.07;66.08;97358.58;1647430;87;21544;-85
2022/04/20 05:43:06;;;;;;;15.10;8.63;;;;;;;1.33;65.67;97356.33;1675084;86;21489;-87
2022/04/20 05:45:35;;;;;;;23.70;7.97;;;;;;;1.44;65.48;97357.16;1674686;86;21036;-85
2022/04/20 05:48:07;;;;;;;12.60;7.85;;;;;;;1.55;65.21;97362.34;1660405;86;21136;-85
2022/04/20 05:50:34;;;;;;;10.72;6.78;;;;;;;1.64;65.22;97350.98;1674979;86;21028;-85
2022/04/20 05:53:01;;;;;;;13.68;7.33;;;;;;;1.74;65.33;97363.13;1653901;86;21378;-85
2022/04/20 05:55:27;;;;;;;11.33;7.55;;;;;;;1.88;65.06;97356.55;1647870;87;21043;-85
2022/04/20 05:57:54;;;;;;;9.98;6.15;;;;;;;1.99;65.05;97357.78;1647710;87;21040;-85
2022/04/20 06:00:21;;;;;;;14.10;6.37;;;;;;;2.09;64.86;97355.57;1697873;84;21024;-84
2022/04/20 06:02:49;;;;;;;10.00;6.33;;;;;;;2.26;64.75;97353.28;1662054;86;21090;-84
2022/04/20 06:05:20;;;;;;;8.78;5.95;;;;;;;2.41;64.20;97349.67;1651094;85;21461;-85
2022/04/20 06:07:48;;;;;;;11.95;6.35;;;;;;;2.54;63.77;97343.05;1677335;85;21091;-85
2022/04/20 06:10:20;;;;;;;16.00;6.62;;;;;;;2.68;63.30;97342.92;1676562;85;21434;-84
2022/04/20 06:12:51;;;;;;;8.90;5.47;;;;;;;2.81;62.56;97338.45;1676967;85;21086;-85
2022/04/20 06:15:34;;;;;;;11.33;6.05;;;;;;;2.93;62.27;97336.16;1654047;85;21441;-85
2022/04/20 06:18:03;;;;;;;13.20;7.05;;;;;;;3.09;61.72;97336.45;1650085;85;21069;-85
2022/04/20 06:20:30;;;;;;;12.63;6.12;;;;;;;3.24;61.17;97335.41;1638645;88;21469;-85
2022/04/20 06:23:13;;;;;;;12.15;7.00;;;;;;;3.39;60.65;97339.63;1560104;91;21029;-86
2022/04/20 06:25:49;;;;;;;8.63;5.50;;;;;;;3.52;61.02;97336.41;1615130;88;21060;-85
2022/04/20 06:28:17;;;;;;;8.58;5.22;;;;;;;3.65;60.13;97334.50;1604799;88;21283;-85
2022/04/20 06:30:45;;;;;;;8.88;4.75;;;;;;;3.80;59.99;97333.89;1656406;86;21512;-85
2022/04/20 06:33:14;;;;;;;11.25;5.40;;;;;;;3.94;59.22;97335.88;1664839;86;21085;-86
2022/04/20 06:35:54;;;;;;;8.43;5.33;;;;;;;4.04;59.49;97330.08;1662719;86;21053;-85
2022/04/20 06:38:29;;;;;;;9.40;5.25;;;;;;;4.19;57.84;97325.51;1664220;86;21096;-85
2022/04/20 06:41:12;;;;;;;9.33;5.35;;;;;;;4.28;57.66;97316.16;1663108;86;21052;-85
2022/04/20 06:43:41;;;;;;;7.50;4.97;;;;;;;4.39;58.36;97315.16;1659159;85;21596;-85
2022/04/20 06:46:28;;;;;;;13.40;5.67;;;;;;;4.48;58.19;97316.29;1639076;86;22128;-86
2022/04/20 06:48:59;;;;;;;9.28;5.67;;;;;;;4.62;58.16;97314.31;1612975;88;21053;-85
2022/04/20 06:58:31;;;;;;;8.70;5.65;;;;;;;4.73;58.22;97311.51;1633706;88;21474;-85
2022/04/20 06:59:31;;;;;;;8.53;5.17;;;;;;;5.07;57.68;97298.68;1638802;87;21096;-86
2022/04/20 07:02:05;;;;;;;;;;;;;;;5.24;57.44;97293.11;1639031;88;21634;-86
2022/04/20 07:04:52;;;;;;;12.25;5.33;;;;;;;5.43;57.63;97291.43;1635828;88;20135;-87
2022/04/20 07:07:21;;;;;;;9.55;4.87;;;;;;;5.61;57.35;97284.92;1635735;88;21092;-86
2022/04/20 07:09:58;;;;;;;13.28;5.53;;;;;;;5.76;56.64;97288.53;1637178;88;21063;-85
2022/04/20 07:12:32;;;;;;;;;;;;;;;5.91;53.45;97285.16;1657330;86;21135;-86
2022/04/20 07:14:59;;;;;;;6.15;4.30;;;;;;;6.03;52.76;97276.16;1663826;86;20090;-86
2022/04/20 07:17:25;;;;;;;5.33;4.10;;;;;;;6.17;53.39;97270.56;1669087;85;21103;-86
2022/04/20 07:19:56;;;;;;;6.47;3.60;;;;;;;6.26;53.44;97275.61;1674284;85;21091;-86
2022/04/20 07:22:38;;;;;;;4.80;3.60;;;;;;;6.37;53.74;97274.05;1677231;85;21048;-86
2022/04/20 07:25:07;;;;;;;4.62;3.22;;;;;;;6.52;51.58;97264.04;1670339;85;21060;-86
2022/04/20 07:27:35;;;;;;;4.95;2.72;;;;;;;6.60;52.39;97266.00;1646180;87;21099;-87
2022/04/20 07:30:19;;;;;;;5.00;2.73;;;;;;;6.68;48.46;97262.73;1618785;89;21124;-86
2022/04/20 07:32:48;;;;;;;17.25;11.00;;;;;;;6.88;43.24;97263.98;1637942;87;21079;-86
2022/04/20 07:35:34;;;;;;;5.15;3.40;;;;;;;7.02;46.47;97258.33;1668804;86;21048;-86
2022/04/20 07:38:15;;;;;;;26.00;7.08;;;;;;;7.19;46.21;97253.07;1641057;87;21044;-86
2022/04/20 07:40:43;;;;;;;120.90;16.10;;;;;;;7.32;44.82;97254.91;1627983;86;21056;-86
2022/04/20 07:43:15;;;;;;;222.00;21.17;;;;;;;7.47;45.81;97260.20;1645387;87;21088;-86
2022/04/20 07:45:43;;;;;;;10.93;3.55;;;;;;;7.66;45.99;97251.28;1650926;85;21047;-86
2022/04/20 07:48:11;;;;;;;4.65;2.98;;;;;;;7.90;46.13;97252.78;1674669;85;21505;-85
2022/04/20 07:50:38;;;;;;;27.90;5.50;;;;;;;8.14;44.90;97248.97;1677720;85;21096;-86
2022/04/20 07:53:09;;;;;;;10.78;3.58;;;;;;;8.29;39.55;97243.19;1641464;85;21016;-86
2022/04/20 07:55:50;;;;;;;4.40;2.98;;;;;;;8.48;41.92;97224.55;1675976;85;21111;-86
2022/04/20 07:58:30;;;;;;;6.58;3.30;;;;;;;8.65;40.67;97228.84;1674219;85;21477;-86
2022/04/20 08:01:04;;;;;;;;;;;;;;;8.82;42.13;97228.27;1647644;87;21112;-87
2022/04/20 08:03:38;;;;;;;3.08;2.47;;;;;;;8.84;38.00;97234.80;1643133;87;20146;-87
2022/04/20 08:06:05;;;;;;;6.50;3.92;;;;;;;8.76;37.41;97232.89;1647250;87;21485;-87
2022/04/20 08:08:36;;;;;;;4.75;3.00;;;;;;;8.76;38.11;97237.70;1647347;87;21036;-86
2022/04/20 08:11:02;;;;;;;23.98;4.53;;;;;;;8.77;39.39;97230.20;1656121;85;21496;-86
2022/04/20 08:16:31;;;;;;;3.25;2.70;;;;;;;8.90;40.25;97229.76;1675708;85;21044;-85
2022/04/20 08:19:16;;;;;;;5.83;3.17;;;;;;;8.97;40.29;97232.61;1677518;85;21068;-86
2022/04/20 08:21:44;;;;;;;8.70;3.02;;;;;;;8.96;38.14;97226.45;1676259;85;21473;-85
2022/04/20 08:24:11;;;;;;;4.45;3.30;;;;;;;8.97;40.23;97219.39;1676127;85;21107;-85
2022/04/20 08:26:37;;;;;;;4.50;3.05;;;;;;;8.98;38.67;97221.95;1697434;84;21112;-86
2022/04/20 08:29:09;;;;;;;66.80;7.95;;;;;;;8.96;38.25;97221.61;1666639;84;20984;-85
2022/04/20 08:31:33;;;;;;;5.47;3.58;;;;;;;8.93;40.18;97219.94;1668376;86;21028;-86
2022/04/20 08:33:59;;;;;;;23.90;4.22;;;;;;;8.91;40.00;97212.98;1640574;87;21541;-86
2022/04/20 08:36:26;;;;;;;47.88;6.85;;;;;;;8.84;38.22;97217.17;1668948;86;21059;-85
2022/04/20 08:38:53;;;;;;;23.95;4.80;;;;;;;8.79;39.65;97215.15;1652742;86;21084;-85
2022/04/20 08:41:20;;;;;;;5.75;3.00;;;;;;;8.78;40.10;97225.32;1668917;86;21100;-85
2022/04/20 08:43:47;;;;;;;5.85;3.17;;;;;;;8.74;40.44;97225.02;1697041;84;21048;-85
2022/04/20 08:46:17;;;;;;;204.38;20.90;;;;;;;8.75;40.17;97214.00;1667475;86;21041;-85
2022/04/20 08:48:44;;;;;;;141.62;13.68;;;;;;;8.86;41.50;97209.20;1663961;86;21485;-85
2022/04/20 08:51:11;;;;;;;9.60;3.45;;;;;;;9.02;41.89;97205.55;1658587;86;21076;-85
2022/04/20 08:53:38;;;;;;;8.73;2.92;;;;;;;9.22;41.20;97203.48;1697686;84;21012;-84
2022/04/20 08:58:51;;;;;;;151.30;9.15;;;;;;;9.55;39.02;97208.88;1692727;84;20986;-85
2022/04/20 09:01:19;;;;;;;130.82;8.35;;;;;;;9.77;39.80;97197.48;1680967;84;21022;-85
2022/04/20 09:03:46;;;;;;;6.67;2.72;;;;;;;10.11;39.18;97199.23;1681013;85;21463;-85
2022/04/20 09:06:15;;;;;;;11.75;3.12;;;;;;;10.37;35.24;97196.84;1680946;85;21063;-86
2022/04/20 09:08:43;;;;;;;7.80;3.58;;;;;;;10.38;32.62;97186.64;1681031;85;21011;-85
2022/04/20 09:11:10;;;;;;;4.42;2.62;;;;;;;10.52;34.94;97202.46;1664424;84;21013;-85
2022/04/20 09:13:44;;;;;;;8.10;2.75;;;;;;;10.63;34.33;97191.41;1697771;84;21560;-85
2022/04/20 09:16:13;;;;;;;3.90;2.62;;;;;;;10.72;33.55;97196.77;1697032;84;21024;-85
2022/04/20 09:18:46;;;;;;;4.72;2.87;;;;;;;10.66;33.51;97197.89;1663874;86;21091;-85
2022/04/20 09:21:15;;;;;;;4.42;2.85;;;;;;;10.53;33.86;97195.78;1660012;86;21530;-85
2022/04/20 09:23:42;;;;;;;3.72;2.60;;;;;;;10.53;34.66;97203.73;1689975;84;21115;-85
2022/04/20 09:26:15;;;;;;;3.80;2.77;;;;;;;10.57;35.95;97197.83;1649400;86;21061;-85
2022/04/20 09:29:06;;;;;;;3.20;2.72;;;;;;;10.62;36.20;97202.47;1674713;86;21055;-85
2022/04/20 09:31:47;;;;;;;4.20;2.80;;;;;;;10.65;34.89;97218.25;1675447;86;21036;-85
2022/04/20 09:34:34;;;;;;;3.47;2.55;;;;;;;10.61;35.72;97213.13;1675163;85;21063;-85
2022/04/20 09:37:13;;;;;;;5.03;2.87;;;;;;;10.65;36.27;97210.75;1660607;85;21170;-85
2022/04/20 09:39:50;;;;;;;11.08;3.35;;;;;;;10.78;36.22;97206.65;1636026;88;21056;-85
2022/04/20 09:42:19;;;;;;;5.17;3.35;;;;;;;10.87;35.57;97213.34;1648297;87;21091;-85
2022/04/20 09:44:59;;;;;;;4.50;2.85;;;;;;;11.02;35.75;97213.59;1636655;87;21040;-85
2022/04/20 09:50:25;;;;;;;6.75;4.30;;;;;;;11.25;36.75;97213.05;1656498;86;21467;-84
2022/04/20 09:52:55;;;;;;;5.83;3.35;;;;;;;11.39;36.37;97217.72;1675242;85;21068;-86
2022/04/20 09:55:34;;;;;;;4.35;3.17;;;;;;;11.29;33.00;97218.61;1675268;85;21445;-85
2022/04/20 09:58:19;;;;;;;17.40;5.95;;;;;;;11.17;33.30;97219.54;1675059;85;21091;-85
2022/04/20 10:00:47;;;;;;;;;;;;;;;11.26;33.81;97220.06;1677957;86;21446;-85
2022/04/20 10:03:30;;;;;;;5.03;2.92;;;;;;;11.35;34.42;97217.00;1675277;85;20454;-85
2022/04/20 10:05:56;;;;;;;3.85;2.83;;;;;;;11.28;32.63;97215.54;1648059;87;21047;-85
2022/04/20 10:08:24;;;;;;;22.52;4.58;;;;;;;11.31;34.59;97209.66;1648802;87;21075;-85
2022/04/20 10:10:55;;;;;;;5.45;2.77;;;;;;;11.50;34.32;97210.12;1648476;87;21056;-86
2022/04/20 10:13:22;;;;;;;5.12;2.85;;;;;;;11.70;35.40;97210.98;1649375;83;21312;-85
2022/04/20 10:16:05;;;;;;;5.20;2.45;;;;;;;11.89;33.21;97205.20;1658097;82;21064;-85
2022/04/20 10:18:37;;;;;;;231.02;29.35;;;;;;;11.98;32.42;97205.25;1696832;82;21073;-84
2022/04/20 10:21:07;;;;;;;93.12;11.57;;;;;;;12.07;32.63;97205.30;1665749;85;21063;-86
2022/04/20 10:23:36;;;;;;;4.20;2.42;;;;;;;12.28;32.79;97200.73;1674863;86;21110;-86
2022/04/20 10:26:08;;;;;;;3.17;2.60;;;;;;;12.61;32.54;97198.24;1647956;86;21068;-86
2022/04/20 10:28:56;;;;;;;4.40;2.87;;;;;;;12.71;28.94;97198.16;1674410;86;21110;-86
2022/04/20 10:31:47;;;;;;;4.40;2.47;;;;;;;12.53;28.41;97190.20;1667195;86;21060;-86
2022/04/20 10:34:21;;;;;;;28.55;11.30;;;;;;;12.89;31.62;97186.20;1697483;84;20989;-86
2022/04/20 10:37:02;;;;;;;8.58;3.90;;;;;;;13.24;31.06;97183.47;1612751;86;21088;-86
2022/04/20 10:39:39;;;;;;;4.50;2.72;;;;;;;13.64;31.33;97173.83;1697288;84;21032;-86
2022/04/20 10:42:17;;;;;;;29.15;14.07;;;;;;;13.90;31.58;97177.33;1666452;86;21071;-87
2022/04/20 10:45:04;;;;;;;5.58;3.80;;;;;;;14.58;30.66;97173.39;1676260;84;21028;-86
2022/04/20 10:47:43;;;;;;;6.87;3.08;;;;;;;14.54;27.23;97165.22;1669335;86;21064;-87
2022/04/20 10:50:18;;;;;;;3.72;2.75;;;;;;;14.42;30.11;97169.92;1669363;86;21061;-86
2022/04/20 10:53:04;;;;;;;4.62;2.98;;;;;;;14.34;29.63;97177.05;1669492;86;21012;-84
2022/04/20 10:55:38;;;;;;;7.50;2.70;;;;;;;13.94;28.37;97174.39;1669129;86;21012;-87
2022/04/20 10:58:17;;;;;;;33.63;5.08;;;;;;;14.07;27.93;97175.88;1686138;84;21052;-85
2022/04/20 11:00:44;;;;;;;448.43;29.95;;;;;;;15.36;28.92;97173.27;1669300;86;21076;-85
2022/04/20 11:03:12;;;;;;;32.08;6.30;;;;;;;16.17;27.79;97171.72;1667922;86;21403;-84
2022/04/20 11:05:57;;;;;;;16.73;6.37;;;;;;;16.83;28.31;97165.57;1669286;86;21477;-85
2022/04/20 11:08:24;;;;;;;16.40;9.55;;;;;;;16.97;25.74;97162.41;1697251;84;21073;-86
2022/04/20 11:19:52;;;;;;;2.20;2.00;;;;;;;21.30;22.18;97133.14;1691511;85;21100;-85
2022/04/20 11:22:22;;;;;;;2.80;2.08;;;;;;;21.81;19.90;97133.24;1677438;85;21087;-86
2022/04/20 11:25:11;;;;;;;2.98;2.60;;;;;;;21.56;22.29;97142.14;1678067;85;21008;-85
2022/04/20 11:27:38;;;;;;;5.75;2.62;;;;;;;20.55;20.84;97134.08;1655792;87;21485;-85
2022/04/20 11:30:06;;;;;;;3.83;2.70;;;;;;;19.56;22.48;97146.17;1655625;87;21397;-84
2022/04/20 11:32:33;;;;;;;4.62;2.65;;;;;;;18.52;22.28;97140.26;1655545;86;21098;-85
2022/04/20 11:35:07;;;;;;;3.62;2.17;;;;;;;17.54;21.68;97149.55;1655706;86;21023;-84
2022/04/20 11:37:34;;;;;;;3.85;2.47;;;;;;;16.58;23.11;97143.64;1697965;84;21509;-84
2022/04/20 11:40:12;;;;;;;4.33;2.70;;;;;;;15.99;24.10;97156.41;1681212;85;20994;-84
2022/04/20 11:42:41;;;;;;;6.00;4.65;;;;;;;15.25;23.95;97154.77;1698311;84;21015;-85
2022/04/20 11:45:09;;;;;;;3.22;2.70;;;;;;;14.71;24.84;97153.55;1680872;85;21006;-85
2022/04/20 11:47:40;;;;;;;6.40;4.50;;;;;;;14.43;26.01;97148.52;1698714;84;21046;-86
2022/04/20 11:50:09;;;;;;;4.30;2.80;;;;;;;14.24;26.35;97148.72;1676197;85;21039;-85
2022/04/20 11:53:00;;;;;;;4.60;2.70;;;;;;;14.10;26.83;97145.53;1671633;86;21056;-86
2022/04/20 11:55:46;;;;;;;4.58;2.40;;;;;;;14.09;27.66;97143.82;1671468;86;21087;-86
2022/04/20 11:58:14;;;;;;;3.37;2.40;;;;;;;14.85;27.43;97147.41;1671601;86;21448;-86
2022/04/20 12:00:41;;;;;;;3.87;2.45;;;;;;;15.97;24.41;97136.93;1671609;86;21056;-85
2022/04/20 12:03:08;;;;;;;18.42;11.25;;;;;;;16.40;23.47;97141.23;1652443;85;21070;-84
2022/04/20 12:05:34;;;;;;;4.65;3.00;;;;;;;16.36;23.07;97125.88;1681089;85;21077;-84
2022/04/20 12:08:01;;;;;;;3.17;2.58;;;;;;;16.48;24.98;97130.02;1698254;84;21016;-84
2022/04/20 12:10:28;;;;;;;4.10;2.67;;;;;;;16.28;25.23;97120.69;1681278;85;21019;-85
2022/04/20 12:12:54;;;;;;;2.50;2.30;;;;;;;16.02;25.40;97120.61;1678438;84;21004;-85
2022/04/20 12:15:21;;;;;;;4.03;2.33;;;;;;;15.65;23.89;97126.50;1680943;85;21016;-85
2022/04/20 12:17:47;;;;;;;3.85;2.20;;;;;;;15.55;25.25;97130.23;1693142;84;21046;-85
2022/04/20 12:20:14;;;;;;;4.50;2.60;;;;;;;15.34;25.29;97128.44;1646536;85;21094;-85
2022/04/20 12:22:44;;;;;;;9.68;3.75;;;;;;;14.76;24.88;97126.62;1689139;85;20995;-85
2022/04/20 12:25:19;;;;;;;22.52;14.45;;;;;;;14.62;26.44;97124.77;1689539;84;21019;-86
2022/04/20 12:27:53;;;;;;;6.30;3.35;;;;;;;14.48;26.79;97129.11;1690933;83;21091;-85
2022/04/20 12:30:37;;;;;;;4.17;3.10;;;;;;;14.21;25.47;97127.10;1691159;84;21005;-85
2022/04/20 12:33:05;;;;;;;26.90;19.15;;;;;;;13.66;26.11;97125.33;1662057;86;21094;-85